sensor_id;sensor_type;location;lat;lon;timestamp;P1;durP1;ratioP1;P2;durP2;ratioP2
66669;SDS011;53568;52.164;4.472;2023-03-16T00:02:17;9.93;;;9.93;;
66669;SDS011;53568;52.164;4.472;2023-03-16T00:04:44;10.34;;;10.34;;
66669;SDS011;53568;52.164;4.472;2023-03-16T00:07:11;10.23;;;10.23;;
66669;SDS011;53568;52.164;4.472;2023-03-16T00:09:38;10.61;;;10.61;;
66669;SDS011;53568;52.164;4.472;2023-03-16T00:12:06;10.74;;;10.74;;
66669;SDS011;53568;52.164;4.472;2023-03-16T00:14:42;10.62;;;10.62;;
66669;SDS011;53568;52.164;4.472;2023-03-16T00:17:13;10.47;;;10.47;;
66669;SDS011;53568;52.164;4.472;2023-03-16T00:19:44;10.54;;;10.54;;
66669;SDS011;53568;52.164;4.472;2023-03-16T00:22:11;10.53;;;10.53;;
66669;SDS011;53568;52.164;4.472;2023-03-16T00:24:39;10.26;;;10.26;;
66669;SDS011;53568;52.164;4.472;2023-03-16T00:27:08;10.79;;;10.79;;
66669;SDS011;53568;52.164;4.472;2023-03-16T00:29:39;10.97;;;10.97;;
66669;SDS011;53568;52.164;4.472;2023-03-16T00:32:14;11.09;;;11.09;;
66669;SDS011;53568;52.164;4.472;2023-03-16T00:34:42;11.36;;;11.36;;
66669;SDS011;53568;52.164;4.472;2023-03-16T00:37:10;11.43;;;11.43;;
66669;SDS011;53568;52.164;4.472;2023-03-16T00:39:38;11.83;;;11.83;;
66669;SDS011;53568;52.164;4.472;2023-03-16T00:42:05;11.09;;;11.09;;
66669;SDS011;53568;52.164;4.472;2023-03-16T00:44:30;11.88;;;11.88;;
66669;SDS011;53568;52.164;4.472;2023-03-16T00:46:56;11.77;;;11.77;;
66669;SDS011;53568;52.164;4.472;2023-03-16T00:49:21;11.44;;;11.44;;
66669;SDS011;53568;52.164;4.472;2023-03-16T00:51:47;12.04;;;12.04;;
66669;SDS011;53568;52.164;4.472;2023-03-16T00:54:12;12.00;;;11.95;;
66669;SDS011;53568;52.164;4.472;2023-03-16T00:56:38;11.74;;;11.72;;
66669;SDS011;53568;52.164;4.472;2023-03-16T00:59:03;11.51;;;11.51;;
66669;SDS011;53568;52.164;4.472;2023-03-16T01:01:30;11.66;;;11.66;;
66669;SDS011;53568;52.164;4.472;2023-03-16T01:03:57;11.67;;;11.67;;
66669;SDS011;53568;52.164;4.472;2023-03-16T01:06:26;10.87;;;10.87;;
66669;SDS011;53568;52.164;4.472;2023-03-16T01:08:52;11.31;;;11.31;;
66669;SDS011;53568;52.164;4.472;2023-03-16T01:11:19;11.35;;;11.34;;
66669;SDS011;53568;52.164;4.472;2023-03-16T01:13:47;11.44;;;11.44;;
66669;SDS011;53568;52.164;4.472;2023-03-16T01:16:14;11.03;;;11.03;;
66669;SDS011;53568;52.164;4.472;2023-03-16T01:18:42;11.58;;;11.58;;
66669;SDS011;53568;52.164;4.472;2023-03-16T01:21:08;11.27;;;11.27;;
66669;SDS011;53568;52.164;4.472;2023-03-16T01:23:38;11.45;;;11.45;;
66669;SDS011;53568;52.164;4.472;2023-03-16T01:26:03;11.33;;;11.33;;
66669;SDS011;53568;52.164;4.472;2023-03-16T01:28:30;11.47;;;11.47;;
66669;SDS011;53568;52.164;4.472;2023-03-16T01:31:14;11.30;;;11.30;;
66669;SDS011;53568;52.164;4.472;2023-03-16T01:33:41;11.43;;;11.43;;
66669;SDS011;53568;52.164;4.472;2023-03-16T01:36:09;11.62;;;11.62;;
66669;SDS011;53568;52.164;4.472;2023-03-16T01:38:36;11.55;;;11.55;;
66669;SDS011;53568;52.164;4.472;2023-03-16T01:41:02;12.01;;;12.01;;
66669;SDS011;53568;52.164;4.472;2023-03-16T01:43:29;11.48;;;11.48;;
66669;SDS011;53568;52.164;4.472;2023-03-16T01:48:27;11.56;;;11.56;;
66669;SDS011;53568;52.164;4.472;2023-03-16T01:51:01;11.76;;;11.76;;
66669;SDS011;53568;52.164;4.472;2023-03-16T01:53:32;11.59;;;11.59;;
66669;SDS011;53568;52.164;4.472;2023-03-16T01:55:59;11.37;;;11.37;;
66669;SDS011;53568;52.164;4.472;2023-03-16T01:58:29;11.62;;;11.62;;
66669;SDS011;53568;52.164;4.472;2023-03-16T02:00:56;11.59;;;11.59;;
66669;SDS011;53568;52.164;4.472;2023-03-16T02:03:23;11.52;;;11.52;;
66669;SDS011;53568;52.164;4.472;2023-03-16T02:08:29;11.24;;;11.24;;
66669;SDS011;53568;52.164;4.472;2023-03-16T02:10:56;11.30;;;11.29;;
66669;SDS011;53568;52.164;4.472;2023-03-16T02:13:23;11.01;;;11.01;;
66669;SDS011;53568;52.164;4.472;2023-03-16T02:15:50;11.51;;;11.51;;
66669;SDS011;53568;52.164;4.472;2023-03-16T02:18:17;11.98;;;11.98;;
66669;SDS011;53568;52.164;4.472;2023-03-16T02:23:34;11.08;;;11.08;;
66669;SDS011;53568;52.164;4.472;2023-03-16T02:28:45;11.10;;;11.10;;
66669;SDS011;53568;52.164;4.472;2023-03-16T02:31:31;11.66;;;11.66;;
66669;SDS011;53568;52.164;4.472;2023-03-16T02:33:58;10.90;;;10.90;;
66669;SDS011;53568;52.164;4.472;2023-03-16T02:36:25;11.79;;;11.79;;
66669;SDS011;53568;52.164;4.472;2023-03-16T02:38:51;11.66;;;11.66;;
66669;SDS011;53568;52.164;4.472;2023-03-16T02:41:17;11.33;;;11.33;;
66669;SDS011;53568;52.164;4.472;2023-03-16T02:46:42;11.11;;;11.11;;
66669;SDS011;53568;52.164;4.472;2023-03-16T02:49:26;11.52;;;11.52;;
66669;SDS011;53568;52.164;4.472;2023-03-16T02:51:58;11.34;;;11.34;;
66669;SDS011;53568;52.164;4.472;2023-03-16T02:54:24;11.13;;;11.12;;
66669;SDS011;53568;52.164;4.472;2023-03-16T02:56:49;10.93;;;10.93;;
66669;SDS011;53568;52.164;4.472;2023-03-16T02:59:15;10.94;;;10.94;;
66669;SDS011;53568;52.164;4.472;2023-03-16T03:01:41;11.40;;;11.40;;
66669;SDS011;53568;52.164;4.472;2023-03-16T03:04:07;11.38;;;11.38;;
66669;SDS011;53568;52.164;4.472;2023-03-16T03:06:33;11.01;;;11.01;;
66669;SDS011;53568;52.164;4.472;2023-03-16T03:08:59;11.18;;;11.18;;
66669;SDS011;53568;52.164;4.472;2023-03-16T03:11:26;11.09;;;11.09;;
66669;SDS011;53568;52.164;4.472;2023-03-16T03:13:52;11.29;;;11.29;;
66669;SDS011;53568;52.164;4.472;2023-03-16T03:16:19;10.75;;;10.75;;
66669;SDS011;53568;52.164;4.472;2023-03-16T03:18:45;10.68;;;10.68;;
66669;SDS011;53568;52.164;4.472;2023-03-16T03:21:11;11.22;;;11.22;;
66669;SDS011;53568;52.164;4.472;2023-03-16T03:23:37;11.30;;;11.30;;
66669;SDS011;53568;52.164;4.472;2023-03-16T03:26:03;11.15;;;11.15;;
66669;SDS011;53568;52.164;4.472;2023-03-16T03:28:29;11.25;;;11.25;;
66669;SDS011;53568;52.164;4.472;2023-03-16T03:30:55;11.23;;;11.23;;
66669;SDS011;53568;52.164;4.472;2023-03-16T03:33:21;11.37;;;11.37;;
66669;SDS011;53568;52.164;4.472;2023-03-16T03:35:52;11.03;;;11.03;;
66669;SDS011;53568;52.164;4.472;2023-03-16T03:38:19;11.13;;;11.13;;
66669;SDS011;53568;52.164;4.472;2023-03-16T03:40:47;10.96;;;10.96;;
66669;SDS011;53568;52.164;4.472;2023-03-16T03:43:14;11.12;;;11.10;;
66669;SDS011;53568;52.164;4.472;2023-03-16T03:45:40;10.61;;;10.61;;
66669;SDS011;53568;52.164;4.472;2023-03-16T03:48:05;10.14;;;10.14;;
66669;SDS011;53568;52.164;4.472;2023-03-16T03:50:30;10.19;;;10.19;;
66669;SDS011;53568;52.164;4.472;2023-03-16T03:52:56;9.71;;;9.70;;
66669;SDS011;53568;52.164;4.472;2023-03-16T03:55:21;10.27;;;10.27;;
66669;SDS011;53568;52.164;4.472;2023-03-16T03:57:47;10.25;;;10.25;;
66669;SDS011;53568;52.164;4.472;2023-03-16T04:00:13;10.48;;;10.48;;
66669;SDS011;53568;52.164;4.472;2023-03-16T04:02:38;10.09;;;10.09;;
66669;SDS011;53568;52.164;4.472;2023-03-16T04:05:05;10.17;;;10.17;;
66669;SDS011;53568;52.164;4.472;2023-03-16T04:07:31;10.71;;;10.71;;
66669;SDS011;53568;52.164;4.472;2023-03-16T04:09:57;10.38;;;10.38;;
66669;SDS011;53568;52.164;4.472;2023-03-16T04:12:23;10.30;;;10.30;;
66669;SDS011;53568;52.164;4.472;2023-03-16T04:14:48;10.60;;;10.60;;
66669;SDS011;53568;52.164;4.472;2023-03-16T04:17:15;10.71;;;10.71;;
66669;SDS011;53568;52.164;4.472;2023-03-16T04:19:41;10.02;;;10.02;;
66669;SDS011;53568;52.164;4.472;2023-03-16T04:22:07;10.18;;;10.18;;
66669;SDS011;53568;52.164;4.472;2023-03-16T04:24:32;10.42;;;10.42;;
66669;SDS011;53568;52.164;4.472;2023-03-16T04:26:58;10.12;;;10.11;;
66669;SDS011;53568;52.164;4.472;2023-03-16T04:29:25;10.17;;;10.15;;
66669;SDS011;53568;52.164;4.472;2023-03-16T04:31:52;9.92;;;9.92;;
66669;SDS011;53568;52.164;4.472;2023-03-16T04:34:18;9.71;;;9.71;;
66669;SDS011;53568;52.164;4.472;2023-03-16T04:36:49;9.59;;;9.59;;
66669;SDS011;53568;52.164;4.472;2023-03-16T04:39:16;10.08;;;10.08;;
66669;SDS011;53568;52.164;4.472;2023-03-16T04:41:42;9.55;;;9.53;;
66669;SDS011;53568;52.164;4.472;2023-03-16T04:44:08;9.34;;;9.29;;
66669;SDS011;53568;52.164;4.472;2023-03-16T04:46:33;9.77;;;9.77;;
66669;SDS011;53568;52.164;4.472;2023-03-16T04:49:00;9.01;;;9.01;;
66669;SDS011;53568;52.164;4.472;2023-03-16T04:51:25;9.00;;;9.00;;
66669;SDS011;53568;52.164;4.472;2023-03-16T04:53:51;9.32;;;9.32;;
66669;SDS011;53568;52.164;4.472;2023-03-16T04:56:17;8.75;;;8.75;;
66669;SDS011;53568;52.164;4.472;2023-03-16T04:58:44;8.72;;;8.72;;
66669;SDS011;53568;52.164;4.472;2023-03-16T05:01:13;8.89;;;8.89;;
66669;SDS011;53568;52.164;4.472;2023-03-16T05:03:39;9.07;;;9.07;;
66669;SDS011;53568;52.164;4.472;2023-03-16T05:06:05;8.99;;;8.99;;
66669;SDS011;53568;52.164;4.472;2023-03-16T05:08:30;8.92;;;8.92;;
66669;SDS011;53568;52.164;4.472;2023-03-16T05:10:56;8.90;;;8.90;;
66669;SDS011;53568;52.164;4.472;2023-03-16T05:13:23;8.83;;;8.81;;
66669;SDS011;53568;52.164;4.472;2023-03-16T05:15:48;8.90;;;8.90;;
66669;SDS011;53568;52.164;4.472;2023-03-16T05:18:14;8.30;;;8.30;;
66669;SDS011;53568;52.164;4.472;2023-03-16T05:20:39;8.26;;;8.26;;
66669;SDS011;53568;52.164;4.472;2023-03-16T05:23:06;8.39;;;8.39;;
66669;SDS011;53568;52.164;4.472;2023-03-16T05:25:32;8.11;;;8.07;;
66669;SDS011;53568;52.164;4.472;2023-03-16T05:27:59;8.13;;;8.13;;
66669;SDS011;53568;52.164;4.472;2023-03-16T05:30:24;7.31;;;7.31;;
66669;SDS011;53568;52.164;4.472;2023-03-16T05:32:50;7.20;;;7.20;;
66669;SDS011;53568;52.164;4.472;2023-03-16T05:35:17;7.16;;;7.16;;
66669;SDS011;53568;52.164;4.472;2023-03-16T05:37:43;6.87;;;6.87;;
66669;SDS011;53568;52.164;4.472;2023-03-16T05:40:09;6.57;;;6.57;;
66669;SDS011;53568;52.164;4.472;2023-03-16T05:42:48;6.31;;;6.30;;
66669;SDS011;53568;52.164;4.472;2023-03-16T05:45:18;6.14;;;6.13;;
66669;SDS011;53568;52.164;4.472;2023-03-16T05:47:44;5.97;;;5.97;;
66669;SDS011;53568;52.164;4.472;2023-03-16T05:50:11;5.78;;;5.78;;
66669;SDS011;53568;52.164;4.472;2023-03-16T05:52:38;5.70;;;5.70;;
66669;SDS011;53568;52.164;4.472;2023-03-16T05:55:04;5.58;;;5.58;;
66669;SDS011;53568;52.164;4.472;2023-03-16T05:57:31;5.78;;;5.78;;
66669;SDS011;53568;52.164;4.472;2023-03-16T05:59:58;5.18;;;5.18;;
66669;SDS011;53568;52.164;4.472;2023-03-16T06:02:24;5.24;;;5.24;;
66669;SDS011;53568;52.164;4.472;2023-03-16T06:04:49;5.12;;;5.12;;
66669;SDS011;53568;52.164;4.472;2023-03-16T06:07:15;5.14;;;5.14;;
66669;SDS011;53568;52.164;4.472;2023-03-16T06:09:41;5.13;;;5.11;;
66669;SDS011;53568;52.164;4.472;2023-03-16T06:12:06;5.11;;;5.10;;
66669;SDS011;53568;52.164;4.472;2023-03-16T06:14:35;5.01;;;5.01;;
66669;SDS011;53568;52.164;4.472;2023-03-16T06:17:01;5.07;;;5.07;;
66669;SDS011;53568;52.164;4.472;2023-03-16T06:19:26;4.96;;;4.96;;
66669;SDS011;53568;52.164;4.472;2023-03-16T06:21:52;4.93;;;4.93;;
66669;SDS011;53568;52.164;4.472;2023-03-16T06:24:17;5.02;;;5.02;;
66669;SDS011;53568;52.164;4.472;2023-03-16T06:26:43;5.09;;;5.09;;
66669;SDS011;53568;52.164;4.472;2023-03-16T06:29:08;5.11;;;5.11;;
66669;SDS011;53568;52.164;4.472;2023-03-16T06:31:34;4.95;;;4.95;;
66669;SDS011;53568;52.164;4.472;2023-03-16T06:34:00;5.11;;;5.11;;
66669;SDS011;53568;52.164;4.472;2023-03-16T06:36:26;4.97;;;4.97;;
66669;SDS011;53568;52.164;4.472;2023-03-16T06:38:52;4.74;;;4.74;;
66669;SDS011;53568;52.164;4.472;2023-03-16T06:41:17;5.05;;;5.05;;
66669;SDS011;53568;52.164;4.472;2023-03-16T06:43:46;5.16;;;5.16;;
66669;SDS011;53568;52.164;4.472;2023-03-16T06:46:12;5.40;;;5.40;;
66669;SDS011;53568;52.164;4.472;2023-03-16T06:48:38;5.71;;;5.71;;
66669;SDS011;53568;52.164;4.472;2023-03-16T06:51:03;5.66;;;5.66;;
66669;SDS011;53568;52.164;4.472;2023-03-16T06:53:31;5.36;;;5.36;;
66669;SDS011;53568;52.164;4.472;2023-03-16T06:55:57;5.64;;;5.64;;
66669;SDS011;53568;52.164;4.472;2023-03-16T06:58:22;5.62;;;5.62;;
66669;SDS011;53568;52.164;4.472;2023-03-16T07:00:48;5.47;;;5.47;;
66669;SDS011;53568;52.164;4.472;2023-03-16T07:03:13;5.60;;;5.60;;
66669;SDS011;53568;52.164;4.472;2023-03-16T07:05:39;5.58;;;5.58;;
66669;SDS011;53568;52.164;4.472;2023-03-16T07:08:04;5.66;;;5.66;;
66669;SDS011;53568;52.164;4.472;2023-03-16T07:10:30;5.61;;;5.61;;
66669;SDS011;53568;52.164;4.472;2023-03-16T07:12:56;6.03;;;6.03;;
66669;SDS011;53568;52.164;4.472;2023-03-16T07:15:22;5.80;;;5.80;;
66669;SDS011;53568;52.164;4.472;2023-03-16T07:17:50;6.04;;;6.04;;
66669;SDS011;53568;52.164;4.472;2023-03-16T07:20:16;5.85;;;5.85;;
66669;SDS011;53568;52.164;4.472;2023-03-16T07:22:42;6.34;;;6.33;;
66669;SDS011;53568;52.164;4.472;2023-03-16T07:25:08;5.78;;;5.77;;
66669;SDS011;53568;52.164;4.472;2023-03-16T07:27:35;5.72;;;5.72;;
66669;SDS011;53568;52.164;4.472;2023-03-16T07:30:01;5.72;;;5.72;;
66669;SDS011;53568;52.164;4.472;2023-03-16T07:32:29;5.39;;;5.37;;
66669;SDS011;53568;52.164;4.472;2023-03-16T07:34:54;5.51;;;5.51;;
66669;SDS011;53568;52.164;4.472;2023-03-16T07:37:22;5.34;;;5.34;;
66669;SDS011;53568;52.164;4.472;2023-03-16T07:39:47;5.46;;;5.46;;
66669;SDS011;53568;52.164;4.472;2023-03-16T07:42:13;5.54;;;5.54;;
66669;SDS011;53568;52.164;4.472;2023-03-16T07:44:38;5.67;;;5.67;;
66669;SDS011;53568;52.164;4.472;2023-03-16T07:47:04;5.80;;;5.80;;
66669;SDS011;53568;52.164;4.472;2023-03-16T07:49:31;5.90;;;5.89;;
66669;SDS011;53568;52.164;4.472;2023-03-16T07:51:56;5.83;;;5.82;;
66669;SDS011;53568;52.164;4.472;2023-03-16T07:54:22;5.57;;;5.56;;
66669;SDS011;53568;52.164;4.472;2023-03-16T07:56:48;5.62;;;5.61;;
66669;SDS011;53568;52.164;4.472;2023-03-16T07:59:14;5.08;;;5.06;;
66669;SDS011;53568;52.164;4.472;2023-03-16T08:01:39;5.09;;;5.07;;
66669;SDS011;53568;52.164;4.472;2023-03-16T08:04:05;5.35;;;5.35;;
66669;SDS011;53568;52.164;4.472;2023-03-16T08:06:31;5.06;;;5.06;;
66669;SDS011;53568;52.164;4.472;2023-03-16T08:08:56;4.93;;;4.93;;
66669;SDS011;53568;52.164;4.472;2023-03-16T08:11:23;4.87;;;4.87;;
66669;SDS011;53568;52.164;4.472;2023-03-16T08:13:49;4.97;;;4.97;;
66669;SDS011;53568;52.164;4.472;2023-03-16T08:16:21;4.66;;;4.65;;
66669;SDS011;53568;52.164;4.472;2023-03-16T08:18:48;4.82;;;4.82;;
66669;SDS011;53568;52.164;4.472;2023-03-16T08:21:16;4.40;;;4.40;;
66669;SDS011;53568;52.164;4.472;2023-03-16T08:23:43;4.64;;;4.64;;
66669;SDS011;53568;52.164;4.472;2023-03-16T08:26:16;4.59;;;4.59;;
66669;SDS011;53568;52.164;4.472;2023-03-16T08:28:43;4.81;;;4.81;;
66669;SDS011;53568;52.164;4.472;2023-03-16T08:31:13;4.62;;;4.62;;
66669;SDS011;53568;52.164;4.472;2023-03-16T08:33:40;4.87;;;4.87;;
66669;SDS011;53568;52.164;4.472;2023-03-16T08:36:06;4.66;;;4.66;;
66669;SDS011;53568;52.164;4.472;2023-03-16T08:38:33;4.36;;;4.36;;
66669;SDS011;53568;52.164;4.472;2023-03-16T08:40:59;4.59;;;4.59;;
66669;SDS011;53568;52.164;4.472;2023-03-16T08:43:24;4.29;;;4.29;;
66669;SDS011;53568;52.164;4.472;2023-03-16T08:45:51;4.41;;;4.41;;
66669;SDS011;53568;52.164;4.472;2023-03-16T08:48:18;4.63;;;4.63;;
66669;SDS011;53568;52.164;4.472;2023-03-16T08:50:44;4.51;;;4.50;;
66669;SDS011;53568;52.164;4.472;2023-03-16T08:53:10;4.35;;;4.35;;
66669;SDS011;53568;52.164;4.472;2023-03-16T08:55:37;4.72;;;4.72;;
66669;SDS011;53568;52.164;4.472;2023-03-16T08:58:06;4.42;;;4.42;;
66669;SDS011;53568;52.164;4.472;2023-03-16T09:00:32;4.26;;;4.26;;
66669;SDS011;53568;52.164;4.472;2023-03-16T09:02:59;4.43;;;4.43;;
66669;SDS011;53568;52.164;4.472;2023-03-16T09:05:26;4.06;;;4.06;;
66669;SDS011;53568;52.164;4.472;2023-03-16T09:07:53;4.17;;;4.16;;
66669;SDS011;53568;52.164;4.472;2023-03-16T09:10:19;4.26;;;4.25;;
66669;SDS011;53568;52.164;4.472;2023-03-16T09:12:50;4.13;;;4.11;;
66669;SDS011;53568;52.164;4.472;2023-03-16T09:15:17;4.06;;;4.06;;
66669;SDS011;53568;52.164;4.472;2023-03-16T09:17:45;4.06;;;4.06;;
66669;SDS011;53568;52.164;4.472;2023-03-16T09:20:12;4.01;;;4.01;;
66669;SDS011;53568;52.164;4.472;2023-03-16T09:22:40;4.22;;;4.22;;
66669;SDS011;53568;52.164;4.472;2023-03-16T09:25:06;4.08;;;4.08;;
66669;SDS011;53568;52.164;4.472;2023-03-16T09:27:34;4.02;;;4.02;;
66669;SDS011;53568;52.164;4.472;2023-03-16T09:30:01;3.99;;;3.99;;
66669;SDS011;53568;52.164;4.472;2023-03-16T09:32:29;4.11;;;4.10;;
66669;SDS011;53568;52.164;4.472;2023-03-16T09:34:54;4.03;;;4.02;;
66669;SDS011;53568;52.164;4.472;2023-03-16T09:37:20;3.92;;;3.92;;
66669;SDS011;53568;52.164;4.472;2023-03-16T09:39:47;3.77;;;3.77;;
66669;SDS011;53568;52.164;4.472;2023-03-16T09:42:18;3.68;;;3.68;;
66669;SDS011;53568;52.164;4.472;2023-03-16T09:47:56;3.71;;;3.71;;
66669;SDS011;53568;52.164;4.472;2023-03-16T09:50:30;3.82;;;3.82;;
66669;SDS011;53568;52.164;4.472;2023-03-16T09:55:54;3.72;;;3.72;;
66669;SDS011;53568;52.164;4.472;2023-03-16T09:58:29;3.81;;;3.81;;
66669;SDS011;53568;52.164;4.472;2023-03-16T10:01:02;3.58;;;3.58;;
66669;SDS011;53568;52.164;4.472;2023-03-16T10:06:42;3.61;;;3.61;;
66669;SDS011;53568;52.164;4.472;2023-03-16T10:09:23;3.46;;;3.46;;
66669;SDS011;53568;52.164;4.472;2023-03-16T10:12:16;3.62;;;3.62;;
66669;SDS011;53568;52.164;4.472;2023-03-16T10:14:50;3.69;;;3.69;;
66669;SDS011;53568;52.164;4.472;2023-03-16T10:17:25;3.53;;;3.53;;
66669;SDS011;53568;52.164;4.472;2023-03-16T10:20:03;3.61;;;3.61;;
66669;SDS011;53568;52.164;4.472;2023-03-16T10:22:36;3.52;;;3.52;;
66669;SDS011;53568;52.164;4.472;2023-03-16T10:27:45;3.75;;;3.75;;
66669;SDS011;53568;52.164;4.472;2023-03-16T10:32:53;3.71;;;3.70;;
66669;SDS011;53568;52.164;4.472;2023-03-16T10:38:07;3.67;;;3.67;;
66669;SDS011;53568;52.164;4.472;2023-03-16T10:40:37;3.64;;;3.64;;
66669;SDS011;53568;52.164;4.472;2023-03-16T10:43:04;3.78;;;3.78;;
66669;SDS011;53568;52.164;4.472;2023-03-16T10:45:38;3.68;;;3.68;;
66669;SDS011;53568;52.164;4.472;2023-03-16T10:48:10;3.70;;;3.70;;
66669;SDS011;53568;52.164;4.472;2023-03-16T10:50:47;3.81;;;3.81;;
66669;SDS011;53568;52.164;4.472;2023-03-16T10:53:19;3.35;;;3.35;;
66669;SDS011;53568;52.164;4.472;2023-03-16T10:55:55;3.52;;;3.50;;
66669;SDS011;53568;52.164;4.472;2023-03-16T10:58:23;3.36;;;3.34;;
66669;SDS011;53568;52.164;4.472;2023-03-16T11:00:53;3.36;;;3.36;;
66669;SDS011;53568;52.164;4.472;2023-03-16T11:03:29;3.57;;;3.54;;
66669;SDS011;53568;52.164;4.472;2023-03-16T11:06:03;3.54;;;3.49;;
66669;SDS011;53568;52.164;4.472;2023-03-16T11:08:36;3.48;;;3.48;;
66669;SDS011;53568;52.164;4.472;2023-03-16T11:11:10;3.32;;;3.31;;
66669;SDS011;53568;52.164;4.472;2023-03-16T11:13:45;3.58;;;3.52;;
66669;SDS011;53568;52.164;4.472;2023-03-16T11:16:20;3.69;;;3.64;;
66669;SDS011;53568;52.164;4.472;2023-03-16T11:19:13;3.59;;;3.55;;
66669;SDS011;53568;52.164;4.472;2023-03-16T11:22:01;3.61;;;3.58;;
66669;SDS011;53568;52.164;4.472;2023-03-16T11:27:15;3.11;;;3.11;;
66669;SDS011;53568;52.164;4.472;2023-03-16T11:30:08;3.21;;;3.21;;
66669;SDS011;53568;52.164;4.472;2023-03-16T11:32:43;3.18;;;3.18;;
66669;SDS011;53568;52.164;4.472;2023-03-16T11:35:17;3.00;;;2.98;;
66669;SDS011;53568;52.164;4.472;2023-03-16T11:49:14;3.07;;;2.99;;
66669;SDS011;53568;52.164;4.472;2023-03-16T11:54:51;2.66;;;2.64;;
66669;SDS011;53568;52.164;4.472;2023-03-16T11:57:36;2.61;;;2.56;;
66669;SDS011;53568;52.164;4.472;2023-03-16T12:11:17;2.33;;;2.27;;
66669;SDS011;53568;52.164;4.472;2023-03-16T12:22:38;2.21;;;2.09;;
66669;SDS011;53568;52.164;4.472;2023-03-16T12:25:16;2.22;;;2.06;;
66669;SDS011;53568;52.164;4.472;2023-03-16T12:27:51;2.17;;;2.01;;
66669;SDS011;53568;52.164;4.472;2023-03-16T12:41:57;2.13;;;1.91;;
66669;SDS011;53568;52.164;4.472;2023-03-16T12:44:47;2.24;;;2.00;;
66669;SDS011;53568;52.164;4.472;2023-03-16T12:47:39;2.49;;;2.21;;
66669;SDS011;53568;52.164;4.472;2023-03-16T12:50:17;2.22;;;2.02;;
66669;SDS011;53568;52.164;4.472;2023-03-16T12:52:48;2.28;;;2.10;;
66669;SDS011;53568;52.164;4.472;2023-03-16T12:55:17;2.51;;;2.30;;
66669;SDS011;53568;52.164;4.472;2023-03-16T12:58:04;2.32;;;2.13;;
66669;SDS011;53568;52.164;4.472;2023-03-16T13:00:33;2.56;;;2.34;;
66669;SDS011;53568;52.164;4.472;2023-03-16T13:03:10;2.87;;;2.59;;
66669;SDS011;53568;52.164;4.472;2023-03-16T13:05:48;2.76;;;2.54;;
66669;SDS011;53568;52.164;4.472;2023-03-16T13:08:18;2.53;;;2.30;;
66669;SDS011;53568;52.164;4.472;2023-03-16T13:13:47;2.45;;;2.28;;
66669;SDS011;53568;52.164;4.472;2023-03-16T13:16:30;2.56;;;2.35;;
66669;SDS011;53568;52.164;4.472;2023-03-16T13:19:00;2.56;;;2.31;;
66669;SDS011;53568;52.164;4.472;2023-03-16T13:21:41;2.59;;;2.37;;
66669;SDS011;53568;52.164;4.472;2023-03-16T13:26:48;2.51;;;2.32;;
66669;SDS011;53568;52.164;4.472;2023-03-16T13:29:27;2.48;;;2.26;;
66669;SDS011;53568;52.164;4.472;2023-03-16T13:31:58;2.41;;;2.21;;
66669;SDS011;53568;52.164;4.472;2023-03-16T13:34:31;2.40;;;2.19;;
66669;SDS011;53568;52.164;4.472;2023-03-16T13:37:01;2.74;;;2.46;;
66669;SDS011;53568;52.164;4.472;2023-03-16T13:39:28;2.29;;;2.06;;
66669;SDS011;53568;52.164;4.472;2023-03-16T13:44:28;2.17;;;1.92;;
66669;SDS011;53568;52.164;4.472;2023-03-16T13:46:56;2.60;;;2.31;;
66669;SDS011;53568;52.164;4.472;2023-03-16T13:49:27;2.49;;;2.20;;
66669;SDS011;53568;52.164;4.472;2023-03-16T13:51:52;2.37;;;2.05;;
66669;SDS011;53568;52.164;4.472;2023-03-16T13:54:22;2.37;;;2.07;;
66669;SDS011;53568;52.164;4.472;2023-03-16T13:56:57;2.36;;;2.05;;
66669;SDS011;53568;52.164;4.472;2023-03-16T13:59:27;2.12;;;1.89;;
66669;SDS011;53568;52.164;4.472;2023-03-16T14:01:58;2.25;;;2.03;;
66669;SDS011;53568;52.164;4.472;2023-03-16T14:04:29;2.31;;;2.05;;
66669;SDS011;53568;52.164;4.472;2023-03-16T14:07:00;2.11;;;1.85;;
66669;SDS011;53568;52.164;4.472;2023-03-16T14:09:28;2.22;;;1.99;;
66669;SDS011;53568;52.164;4.472;2023-03-16T14:12:00;2.22;;;1.99;;
66669;SDS011;53568;52.164;4.472;2023-03-16T14:14:27;2.53;;;2.28;;
66669;SDS011;53568;52.164;4.472;2023-03-16T14:17:02;2.04;;;1.86;;
66669;SDS011;53568;52.164;4.472;2023-03-16T14:19:44;2.09;;;1.90;;
66669;SDS011;53568;52.164;4.472;2023-03-16T14:22:13;2.09;;;1.85;;
66669;SDS011;53568;52.164;4.472;2023-03-16T14:24:42;2.19;;;1.96;;
66669;SDS011;53568;52.164;4.472;2023-03-16T14:27:20;2.27;;;2.06;;
66669;SDS011;53568;52.164;4.472;2023-03-16T14:29:57;2.11;;;1.89;;
66669;SDS011;53568;52.164;4.472;2023-03-16T14:32:27;2.15;;;1.94;;
66669;SDS011;53568;52.164;4.472;2023-03-16T14:35:02;2.30;;;2.07;;
66669;SDS011;53568;52.164;4.472;2023-03-16T14:37:37;2.20;;;1.99;;
66669;SDS011;53568;52.164;4.472;2023-03-16T14:40:07;2.26;;;2.10;;
66669;SDS011;53568;52.164;4.472;2023-03-16T14:42:49;2.06;;;1.94;;
66669;SDS011;53568;52.164;4.472;2023-03-16T14:45:19;2.06;;;1.91;;
66669;SDS011;53568;52.164;4.472;2023-03-16T14:47:45;2.28;;;2.10;;
66669;SDS011;53568;52.164;4.472;2023-03-16T14:50:23;1.98;;;1.86;;
66669;SDS011;53568;52.164;4.472;2023-03-16T14:52:50;2.08;;;1.95;;
66669;SDS011;53568;52.164;4.472;2023-03-16T14:55:20;2.04;;;1.90;;
66669;SDS011;53568;52.164;4.472;2023-03-16T14:57:47;2.03;;;1.90;;
66669;SDS011;53568;52.164;4.472;2023-03-16T15:00:16;2.07;;;1.93;;
66669;SDS011;53568;52.164;4.472;2023-03-16T15:02:44;2.12;;;1.98;;
66669;SDS011;53568;52.164;4.472;2023-03-16T15:05:29;2.09;;;1.96;;
66669;SDS011;53568;52.164;4.472;2023-03-16T15:07:58;2.01;;;1.89;;
66669;SDS011;53568;52.164;4.472;2023-03-16T15:10:25;2.09;;;1.97;;
66669;SDS011;53568;52.164;4.472;2023-03-16T15:12:53;2.19;;;2.08;;
66669;SDS011;53568;52.164;4.472;2023-03-16T15:15:20;2.06;;;1.96;;
66669;SDS011;53568;52.164;4.472;2023-03-16T15:17:48;1.99;;;1.89;;
66669;SDS011;53568;52.164;4.472;2023-03-16T15:20:20;2.13;;;2.02;;
66669;SDS011;53568;52.164;4.472;2023-03-16T15:22:49;2.04;;;1.91;;
66669;SDS011;53568;52.164;4.472;2023-03-16T15:25:22;2.23;;;2.11;;
66669;SDS011;53568;52.164;4.472;2023-03-16T15:28:22;2.05;;;1.97;;
66669;SDS011;53568;52.164;4.472;2023-03-16T15:30:49;1.85;;;1.79;;
66669;SDS011;53568;52.164;4.472;2023-03-16T15:33:17;1.78;;;1.72;;
66669;SDS011;53568;52.164;4.472;2023-03-16T15:35:44;2.09;;;2.01;;
66669;SDS011;53568;52.164;4.472;2023-03-16T15:38:14;1.94;;;1.86;;
66669;SDS011;53568;52.164;4.472;2023-03-16T15:40:46;1.89;;;1.80;;
66669;SDS011;53568;52.164;4.472;2023-03-16T15:43:13;2.04;;;1.95;;
66669;SDS011;53568;52.164;4.472;2023-03-16T15:45:41;2.27;;;2.15;;
66669;SDS011;53568;52.164;4.472;2023-03-16T15:48:08;1.94;;;1.82;;
66669;SDS011;53568;52.164;4.472;2023-03-16T15:50:38;2.02;;;1.88;;
66669;SDS011;53568;52.164;4.472;2023-03-16T15:53:28;2.07;;;1.94;;
66669;SDS011;53568;52.164;4.472;2023-03-16T15:56:02;2.01;;;1.92;;
66669;SDS011;53568;52.164;4.472;2023-03-16T15:58:35;1.93;;;1.85;;
66669;SDS011;53568;52.164;4.472;2023-03-16T16:01:04;1.82;;;1.74;;
66669;SDS011;53568;52.164;4.472;2023-03-16T16:03:32;2.10;;;2.02;;
66669;SDS011;53568;52.164;4.472;2023-03-16T16:05:58;2.08;;;1.99;;
66669;SDS011;53568;52.164;4.472;2023-03-16T16:08:23;1.89;;;1.80;;
66669;SDS011;53568;52.164;4.472;2023-03-16T16:10:49;1.90;;;1.79;;
66669;SDS011;53568;52.164;4.472;2023-03-16T16:13:35;2.16;;;2.06;;
66669;SDS011;53568;52.164;4.472;2023-03-16T16:16:01;2.02;;;1.94;;
66669;SDS011;53568;52.164;4.472;2023-03-16T16:18:30;2.25;;;2.13;;
66669;SDS011;53568;52.164;4.472;2023-03-16T16:21:01;2.20;;;2.09;;